Time;durP1;ratioP1;P1;durP2;ratioP2;P2;SDS_P1;SDS_P2;PMS_P1;PMS_P2;Temp;Humidity;BMP_temperature;BMP_pressure;BME280_temperature;BME280_humidity;BME280_pressure;Samples;Min_cycle;Max_cycle;Signal;HPM_P1;HPM_P2
2021/10/17 00:00:17;;;;;;;2.63;1.53;;;;;;;8.46;74.64;100402.38;5088155;28;20634;-68
2021/10/17 00:02:48;;;;;;;9.53;4.40;;;;;;;8.50;74.71;100409.25;5087573;28;20203;-68
2021/10/17 00:05:17;;;;;;;7.83;4.07;;;;;;;8.55;74.55;100407.13;5087858;28;20524;-68
2021/10/17 00:07:46;;;;;;;8.73;5.13;;;;;;;8.46;74.16;100380.97;5087408;28;20246;-68
2021/10/17 00:10:17;;;;;;;7.53;2.20;;;;;;;8.66;74.42;100405.50;5087910;28;20682;-68
2021/10/17 00:12:46;;;;;;;2.77;1.50;;;;;;;8.71;74.13;100410.53;5093059;28;20590;-68
2021/10/17 00:15:18;;;;;;;4.93;1.33;;;;;;;8.68;74.64;100414.28;5087668;28;20251;-71
2021/10/17 00:17:49;;;;;;;3.20;1.10;;;;;;;8.68;74.04;100414.28;5087702;28;20201;-71
2021/10/17 00:20:19;;;;;;;7.47;1.43;;;;;;;8.64;74.65;100418.13;5087694;28;20200;-71
2021/10/17 00:22:48;;;;;;;4.60;1.20;;;;;;;8.62;74.22;100419.19;5087543;28;20199;-71
2021/10/17 00:25:17;;;;;;;5.13;1.00;;;;;;;8.60;74.03;100421.09;5087608;28;20579;-71
2021/10/17 00:27:46;;;;;;;2.57;1.03;;;;;;;8.61;74.25;100426.34;5087289;28;20283;-71
2021/10/17 00:30:21;;;;;;;2.40;1.20;;;;;;;8.48;74.64;100405.81;5093928;28;20204;-71
2021/10/17 00:32:54;;;;;;;3.10;0.90;;;;;;;8.54;74.90;100419.66;5069131;28;20224;-71
2021/10/17 00:35:22;;;;;;;3.73;1.20;;;;;;;8.55;74.75;100423.19;5074940;28;20200;-71
2021/10/17 00:37:50;;;;;;;4.70;1.40;;;;;;;8.43;75.75;100418.63;5087320;28;20184;-71
2021/10/17 00:40:21;;;;;;;4.30;1.13;;;;;;;8.33;75.71;100411.22;5089896;28;20278;-71
2021/10/17 00:42:51;;;;;;;1.67;0.87;;;;;;;8.30;75.86;100413.19;5090899;28;20200;-71
2021/10/17 00:45:21;;;;;;;7.70;1.50;;;;;;;8.32;75.37;100420.16;5091865;28;20679;-71
2021/10/17 00:47:50;;;;;;;4.77;1.30;;;;;;;8.36;75.00;100420.84;5101364;28;20203;-71
2021/10/17 00:50:19;;;;;;;3.63;1.13;;;;;;;8.23;74.74;100402.00;5090869;28;20214;-71
2021/10/17 00:52:48;;;;;;;4.87;1.23;;;;;;;8.24;75.12;100398.38;5080198;28;20218;-71
2021/10/17 00:55:18;;;;;;;4.60;1.20;;;;;;;8.39;75.16;100421.50;5091985;28;20206;-71
2021/10/17 00:57:47;;;;;;;3.93;1.33;;;;;;;8.40;75.07;100431.25;5106508;28;20228;-71
2021/10/17 01:00:17;;;;;;;0.70;0.70;;;;;;;8.36;75.16;100413.69;5106808;28;20303;-71
2021/10/17 01:02:45;;;;;;;5.53;1.37;;;;;;;8.43;74.85;100424.84;5090189;28;20204;-71
2021/10/17 01:05:15;;;;;;;3.13;1.33;;;;;;;8.44;74.73;100425.72;5110050;28;20192;-71
2021/10/17 01:07:47;;;;;;;5.90;1.23;;;;;;;8.44;74.66;100428.38;5110616;28;20209;-71
2021/10/17 01:10:19;;;;;;;3.43;1.03;;;;;;;8.45;74.84;100427.44;5089133;28;20214;-71
2021/10/17 01:12:49;;;;;;;1.57;1.10;;;;;;;8.45;74.96;100425.59;5080959;28;20197;-71
2021/10/17 01:15:19;;;;;;;3.87;1.10;;;;;;;8.40;74.67;100420.56;5100634;28;20681;-71
2021/10/17 01:17:52;;;;;;;1.13;0.70;;;;;;;8.38;74.38;100424.28;5089656;28;20197;-71
2021/10/17 01:20:23;;;;;;;2.87;1.17;;;;;;;8.30;74.48;100423.91;5091452;28;20208;-71
2021/10/17 01:22:53;;;;;;;3.10;1.07;;;;;;;8.24;74.44;100426.94;5088438;28;20293;-71
2021/10/17 01:25:21;;;;;;;3.47;0.83;;;;;;;8.18;74.56;100433.53;5084329;28;20238;-71
2021/10/17 01:27:50;;;;;;;1999.90;999.90;;;;;;;8.16;74.52;100439.94;5104760;28;20203;-71
2021/10/17 01:30:19;;;;;;;543.93;280.80;;;;;;;8.12;74.64;100427.72;5071081;28;20217;-71
2021/10/17 01:32:49;;;;;;;113.33;53.83;;;;;;;8.16;74.75;100427.44;5087815;28;20265;-71
2021/10/17 01:35:17;;;;;;;21.60;10.77;;;;;;;8.23;74.44;100428.75;5089087;28;20209;-71
2021/10/17 01:37:47;;;;;;;21.83;14.03;;;;;;;8.21;74.61;100430.66;5093858;28;20201;-71
2021/10/17 01:40:16;;;;;;;16.83;8.03;;;;;;;8.16;74.77;100430.09;5088334;28;20213;-71
2021/10/17 01:42:46;;;;;;;17.20;6.37;;;;;;;7.99;74.79;100398.22;5090971;28;20217;-71
2021/10/17 01:45:14;;;;;;;13.93;10.27;;;;;;;8.14;74.94;100418.63;5079901;28;20291;-68
2021/10/17 01:47:46;;;;;;;8.53;5.83;;;;;;;8.24;75.09;100434.97;5087731;28;20196;-68
2021/10/17 01:50:17;;;;;;;6.00;2.93;;;;;;;8.23;74.84;100434.09;5080389;28;20208;-68
2021/10/17 01:52:47;;;;;;;6.73;1.47;;;;;;;8.15;75.38;100427.53;5071267;28;20203;-68
2021/10/17 01:55:16;;;;;;;5.93;2.30;;;;;;;8.14;75.13;100429.34;5097879;28;20224;-68
2021/10/17 01:57:44;;;;;;;14.60;4.20;;;;;;;8.18;75.04;100422.84;5090897;28;20577;-69
2021/10/17 02:00:16;;;;;;;9.70;5.90;;;;;;;8.27;74.78;100430.31;5125522;27;20669;-68
2021/10/17 02:02:49;;;;;;;17.00;10.23;;;;;;;8.35;74.90;100435.19;5091257;28;20213;-68
2021/10/17 02:05:22;;;;;;;4.10;1.90;;;;;;;8.37;74.38;100425.25;5125813;27;20211;-68
2021/10/17 02:07:54;;;;;;;6.77;1.00;;;;;;;8.14;74.42;100385.69;5124882;27;20256;-68
2021/10/17 02:10:22;;;;;;;3.67;1.10;;;;;;;8.45;74.57;100432.78;5125101;27;20573;-68
2021/10/17 02:12:53;;;;;;;4.33;1.60;;;;;;;8.47;74.46;100431.72;5124839;27;20204;-68
2021/10/17 02:15:21;;;;;;;5.00;1.23;;;;;;;8.43;75.25;100429.34;5107033;27;21142;-68
2021/10/17 02:17:49;;;;;;;4.90;1.07;;;;;;;8.39;75.42;100428.69;5070959;28;20234;-68
2021/10/17 02:20:18;;;;;;;2.63;1.00;;;;;;;8.40;75.35;100417.88;5070989;28;20204;-68
2021/10/17 02:22:46;;;;;;;5.90;1.20;;;;;;;8.42;75.44;100420.47;5087684;28;20203;-68
2021/10/17 02:25:16;;;;;;;3.90;0.90;;;;;;;8.17;75.74;100391.69;5070736;28;20579;-68
2021/10/17 02:27:44;;;;;;;5.97;1.10;;;;;;;8.43;75.30;100424.00;5070523;28;20242;-68
2021/10/17 02:30:12;;;;;;;2.23;0.93;;;;;;;8.48;75.20;100435.25;5093004;28;20210;-68
2021/10/17 02:32:42;;;;;;;3.93;1.30;;;;;;;8.47;74.94;100430.84;5087387;28;20205;-68
2021/10/17 02:35:22;;;;;;;5.60;1.30;;;;;;;8.53;75.10;100443.84;5076044;28;20229;-72
2021/10/17 02:37:51;;;;;;;5.17;1.37;;;;;;;8.57;74.71;100438.22;5104128;28;20199;-72
2021/10/17 02:40:22;;;;;;;2.47;1.13;;;;;;;8.60;75.74;100437.16;5087702;28;20212;-68
2021/10/17 02:42:50;;;;;;;3.77;1.23;;;;;;;8.45;76.91;100438.13;5070726;28;20207;-69
2021/10/17 02:45:18;;;;;;;5.50;1.00;;;;;;;8.46;76.47;100442.53;5106740;28;20192;-72
2021/10/17 02:47:47;;;;;;;5.70;1.00;;;;;;;8.33;77.61;100429.94;5071324;28;20292;-72
2021/10/17 02:50:16;;;;;;;7.57;1.40;;;;;;;8.23;77.70;100420.72;5104372;28;20196;-72
2021/10/17 02:52:46;;;;;;;5.03;1.40;;;;;;;8.36;77.43;100436.91;5104053;28;20196;-68
2021/10/17 02:55:16;;;;;;;12.43;1.33;;;;;;;8.39;76.81;100440.25;5087408;28;20248;-68
2021/10/17 02:57:46;;;;;;;4.07;1.10;;;;;;;8.40;76.53;100446.44;5070118;28;20749;-67
2021/10/17 03:00:15;;;;;;;8.10;1.50;;;;;;;8.44;76.70;100447.13;5104094;28;20424;-68
2021/10/17 03:02:44;;;;;;;7.43;1.10;;;;;;;8.44;77.11;100439.94;5088634;28;20690;-68
2021/10/17 03:05:13;;;;;;;3.47;1.03;;;;;;;8.45;77.14;100443.47;5070346;28;20195;-68
2021/10/17 03:07:43;;;;;;;6.67;1.00;;;;;;;8.30;76.95;100430.09;5074734;28;20311;-68
2021/10/17 03:10:11;;;;;;;6.03;1.40;;;;;;;8.44;77.01;100449.78;5069862;28;20241;-68
2021/10/17 03:12:40;;;;;;;5.03;1.30;;;;;;;8.46;76.75;100455.91;5080448;28;20593;-68
2021/10/17 03:15:14;;;;;;;1999.90;906.63;;;;;;;8.40;76.99;100458.00;5074417;28;20236;-68
2021/10/17 03:17:42;;;;;;;127.47;64.33;;;;;;;8.22;77.90;100458.28;5086222;28;20294;-68
2021/10/17 03:20:11;;;;;;;14.70;4.73;;;;;;;8.21;77.99;100452.06;5085736;28;20202;-68
2021/10/17 03:22:44;;;;;;;10.13;5.60;;;;;;;8.23;77.52;100455.50;5083411;28;20210;-68
2021/10/17 03:25:12;;;;;;;4.20;2.63;;;;;;;8.20;77.68;100454.84;5107372;28;20194;-68
2021/10/17 03:27:41;;;;;;;9.73;1.90;;;;;;;8.08;77.98;100456.47;5103067;28;20219;-68
2021/10/17 03:30:15;;;;;;;7.60;2.20;;;;;;;7.79;78.00;100415.50;5112332;28;20491;-67
2021/10/17 03:32:43;;;;;;;6.77;2.50;;;;;;;8.05;77.48;100457.53;5106817;28;20669;-68
2021/10/17 03:35:12;;;;;;;6.53;1.70;;;;;;;8.05;77.37;100464.69;5082503;28;20250;-68
2021/10/17 03:37:40;;;;;;;10.60;1.90;;;;;;;8.04;76.75;100462.97;5103413;28;20217;-68
2021/10/17 03:40:09;;;;;;;5.57;2.10;;;;;;;7.98;77.02;100472.22;5095946;28;20196;-68
2021/10/17 03:42:38;;;;;;;8.73;1.40;;;;;;;7.90;76.91;100468.28;5102507;28;20741;-68
2021/10/17 03:45:07;;;;;;;2.23;1.03;;;;;;;7.86;76.86;100469.44;5097944;28;20202;-68
2021/10/17 03:47:37;;;;;;;4.00;1.20;;;;;;;7.81;76.69;100474.19;5076735;28;20207;-68
2021/10/17 03:50:07;;;;;;;1.90;0.90;;;;;;;7.61;76.57;100449.53;5086380;28;20206;-68
2021/10/17 03:52:35;;;;;;;4.20;2.10;;;;;;;7.67;76.56;100483.94;5102935;28;20196;-68
2021/10/17 03:55:05;;;;;;;3.57;0.90;;;;;;;7.65;76.33;100476.91;5104565;28;20214;-68
2021/10/17 03:57:33;;;;;;;3.63;1.00;;;;;;;7.59;76.60;100480.81;5095165;28;20740;-68
2021/10/17 04:00:02;;;;;;;3.03;0.83;;;;;;;7.60;76.55;100482.53;5086517;28;20295;-68
2021/10/17 04:02:41;;;;;;;4.00;1.00;;;;;;;7.58;77.03;100483.59;5103213;28;20618;-68
2021/10/17 04:05:13;;;;;;;5.23;0.70;;;;;;;7.58;76.88;100484.44;5094972;28;20218;-68
2021/10/17 04:07:41;;;;;;;1.93;0.90;;;;;;;7.61;76.74;100488.75;5087071;28;20214;-68
2021/10/17 04:10:10;;;;;;;2.27;0.90;;;;;;;7.61;76.58;100488.75;5103079;28;20200;-68
2021/10/17 04:12:38;;;;;;;1.80;0.80;;;;;;;7.61;76.57;100491.44;5087776;28;20243;-68
2021/10/17 04:15:08;;;;;;;3.97;1.03;;;;;;;7.58;76.71;100495.13;5088627;28;20227;-68
2021/10/17 04:17:45;;;;;;;4.00;1.10;;;;;;;7.53;76.97;100499.91;5089989;28;20204;-68
2021/10/17 04:20:14;;;;;;;3.87;1.47;;;;;;;7.49;76.87;100501.03;5121425;27;20679;-68
2021/10/17 04:22:42;;;;;;;2.10;1.17;;;;;;;7.50;77.05;100500.09;5090462;28;20257;-68
2021/10/17 04:25:11;;;;;;;3.30;1.00;;;;;;;7.51;76.94;100501.81;5082611;28;20208;-68
2021/10/17 04:27:39;;;;;;;1.67;0.90;;;;;;;7.50;76.51;100502.75;5107950;28;20671;-68
2021/10/17 04:30:11;;;;;;;2.20;0.80;;;;;;;7.46;76.93;100502.09;5120911;27;20200;-68
2021/10/17 04:32:39;;;;;;;1.40;0.80;;;;;;;7.34;76.79;100484.09;5110548;28;20671;-68
2021/10/17 04:35:10;;;;;;;0.67;0.60;;;;;;;7.37;77.04;100491.09;5104487;28;20224;-68
2021/10/17 04:37:39;;;;;;;2.07;0.70;;;;;;;7.34;76.65;100499.25;5105031;28;20294;-68
2021/10/17 04:40:08;;;;;;;1.80;1.20;;;;;;;7.30;76.38;100513.75;5102564;28;20821;-68
2021/10/17 04:42:37;;;;;;;1.60;0.77;;;;;;;7.25;76.07;100505.13;5083263;28;20211;-68
2021/10/17 04:45:07;;;;;;;1.50;0.63;;;;;;;6.96;76.37;100461.41;5107448;28;20498;-68
2021/10/17 04:47:35;;;;;;;3.73;0.80;;;;;;;7.03;76.12;100477.00;5109041;28;20777;-68
2021/10/17 04:50:06;;;;;;;1.77;0.87;;;;;;;7.09;76.14;100508.69;5108577;28;20288;-68
2021/10/17 04:52:39;;;;;;;1.40;0.60;;;;;;;7.05;76.00;100498.28;5084531;28;20660;-68
2021/10/17 04:55:08;;;;;;;4.60;0.90;;;;;;;7.01;76.22;100502.91;5089810;28;20229;-68
2021/10/17 04:57:40;;;;;;;3.70;0.60;;;;;;;6.94;75.68;100506.88;5085093;28;20265;-68
2021/10/17 05:00:11;;;;;;;0.87;0.70;;;;;;;6.82;75.97;100502.25;5104649;28;20659;-68
2021/10/17 05:02:53;;;;;;;1.03;0.73;;;;;;;6.79;76.19;100510.44;5089732;28;20214;-68
2021/10/17 05:05:22;;;;;;;41.83;21.90;;;;;;;6.72;75.97;100506.38;5088161;28;20301;-68
2021/10/17 05:07:52;;;;;;;9.73;3.33;;;;;;;6.67;76.00;100516.44;5090270;28;20463;-68
2021/10/17 05:10:20;;;;;;;2.83;2.57;;;;;;;6.65;76.02;100515.66;5122059;27;20205;-68
2021/10/17 05:12:49;;;;;;;9.73;5.13;;;;;;;6.62;75.75;100514.03;5098735;27;20229;-68
2021/10/17 05:15:19;;;;;;;2.70;1.67;;;;;;;6.60;76.23;100515.06;5103712;28;20235;-67
2021/10/17 05:17:47;;;;;;;5.60;1.47;;;;;;;6.59;75.85;100513.34;5090326;28;20206;-66
2021/10/17 05:20:16;;;;;;;2.87;1.90;;;;;;;6.61;75.69;100522.13;5091575;28;20222;-67
2021/10/17 05:22:45;;;;;;;5.90;5.20;;;;;;;6.42;75.96;100485.78;5092122;28;20202;-67
2021/10/17 05:25:15;;;;;;;10.83;3.27;;;;;;;6.64;75.86;100527.28;5125370;27;20219;-67
2021/10/17 05:27:44;;;;;;;1.93;1.13;;;;;;;6.58;75.47;100524.97;5124708;27;20207;-67
2021/10/17 05:30:13;;;;;;;0.73;0.70;;;;;;;6.40;75.21;100529.47;5091536;28;20202;-67
2021/10/17 05:32:41;;;;;;;2.67;0.80;;;;;;;6.37;75.30;100537.63;5092269;28;20207;-67
2021/10/17 05:35:10;;;;;;;2.97;2.57;;;;;;;6.29;75.89;100537.19;5091196;28;20220;-67
2021/10/17 05:37:38;;;;;;;3.03;1.70;;;;;;;6.17;75.88;100515.59;5103266;28;20637;-67
2021/10/17 05:40:07;;;;;;;4.77;2.37;;;;;;;6.25;75.61;100533.84;5088853;28;20515;-67
2021/10/17 05:42:41;;;;;;;1.33;0.83;;;;;;;6.23;75.57;100539.25;5089110;28;20668;-68
2021/10/17 05:45:10;;;;;;;2.63;0.70;;;;;;;5.99;75.86;100510.34;5085388;28;20202;-68
2021/10/17 05:47:38;;;;;;;2.00;0.80;;;;;;;6.04;75.62;100543.81;5106882;27;20544;-68
2021/10/17 05:50:08;;;;;;;0.60;0.60;;;;;;;5.94;75.67;100552.38;5089308;28;20197;-68
2021/10/17 05:52:36;;;;;;;0.57;0.50;;;;;;;5.83;75.83;100551.13;5091798;28;20198;-71
2021/10/17 05:55:06;;;;;;;0.70;0.63;;;;;;;5.58;75.36;100561.28;5086702;28;20596;-72
2021/10/17 05:57:36;;;;;;;1.63;0.60;;;;;;;5.47;75.84;100563.59;5084320;27;20255;-72
2021/10/17 06:00:08;;;;;;;1.17;1.07;;;;;;;5.27;76.09;100528.19;5082830;28;20207;-72
2021/10/17 06:02:45;;;;;;;1.80;1.17;;;;;;;5.42;76.35;100565.63;5081792;28;20734;-72
2021/10/17 06:05:16;;;;;;;2.03;1.03;;;;;;;5.21;76.61;100536.50;5097838;28;20233;-71
2021/10/17 06:07:45;;;;;;;1.03;0.73;;;;;;;5.47;76.21;100571.59;5085591;28;20660;-72
2021/10/17 06:10:14;;;;;;;2.30;1.13;;;;;;;5.43;76.36;100570.88;5084101;27;20197;-72
2021/10/17 06:12:44;;;;;;;1.13;1.03;;;;;;;5.46;76.40;100572.53;5101767;28;20207;-72
2021/10/17 06:15:17;;;;;;;1.33;0.70;;;;;;;5.46;76.14;100584.03;5080261;28;20290;-72
2021/10/17 06:17:45;;;;;;;1.90;0.63;;;;;;;5.43;76.05;100583.34;5114496;27;20685;-72
2021/10/17 06:20:15;;;;;;;0.77;0.63;;;;;;;5.44;76.36;100580.59;5122505;27;20226;-68
2021/10/17 06:22:46;;;;;;;1.43;0.80;;;;;;;5.07;76.26;100525.63;5117539;27;20532;-69
2021/10/17 06:25:14;;;;;;;1.17;0.70;;;;;;;5.46;75.88;100592.03;5089420;28;20592;-68
2021/10/17 06:27:43;;;;;;;0.90;0.90;;;;;;;5.32;76.18;100564.38;5086232;28;20212;-68
2021/10/17 06:30:11;;;;;;;1.83;0.87;;;;;;;5.47;75.95;100590.22;5087300;28;20276;-72
2021/10/17 06:32:42;;;;;;;0.43;0.43;;;;;;;5.45;76.38;100570.81;5102583;28;20201;-71
2021/10/17 06:35:14;;;;;;;0.47;0.47;;;;;;;5.67;76.12;100598.09;5088280;28;20266;-72
2021/10/17 06:37:42;;;;;;;;;;;;;;;5.80;76.09;100601.00;5122260;27;20556;-72
2021/10/17 06:40:11;;;;;;;;;;;;;;;5.89;75.89;100604.13;5086119;28;19920;-72
2021/10/17 06:42:39;;;;;;;;;;;;;;;5.82;75.72;100600.03;5089403;28;19920;-71
2021/10/17 06:45:35;;;;;;;;;;;;;;;5.67;75.28;100608.75;5089906;28;20029;-72
2021/10/17 06:48:05;;;;;;;;;;;;;;;5.57;75.63;100607.50;5089299;28;19924;-71
2021/10/17 06:50:33;;;;;;;;;;;;;;;5.58;75.86;100617.22;5088859;28;19931;-72
2021/10/17 06:53:00;;;;;;;;;;;;;;;5.65;76.15;100615.97;5088426;28;19945;-72
2021/10/17 06:55:28;;;;;;;;;;;;;;;5.73;75.74;100624.44;5081213;28;19919;-72
2021/10/17 06:57:58;;;;;;;;;;;;;;;5.87;75.66;100627.28;5088560;28;19920;-72
2021/10/17 07:00:28;;;;;;;;;;;;;;;6.01;75.77;100623.94;5088091;28;20389;-72
2021/10/17 07:02:56;;;;;;;;;;;;;;;6.10;75.84;100622.59;5082924;28;19920;-71
2021/10/17 07:05:26;;;;;;;;;;;;;;;6.22;75.86;100624.66;5084505;28;19923;-72
2021/10/17 07:07:54;;;;;;;;;;;;;;;6.35;75.65;100639.06;5087165;28;19924;-71
2021/10/17 07:10:22;;;;;;;;;;;;;;;6.40;75.39;100636.16;5104383;28;19927;-72
2021/10/17 07:13:28;;;;;;;;;;;;;;;6.44;75.34;100638.59;5019451;28;19921;-71
2021/10/17 07:15:58;;;;;;;;;;;;;;;6.48;75.22;100644.63;5001675;28;19929;-72
2021/10/17 07:18:26;;;;;;;;;;;;;;;6.53;75.06;100643.44;5054048;28;20021;-71
2021/10/17 07:20:56;;;;;;;;;;;;;;;6.61;74.89;100647.50;5084342;28;20299;-72
2021/10/17 07:23:23;;;;;;;;;;;;;;;6.63;74.84;100649.16;5084466;28;20499;-71
2021/10/17 07:25:53;;;;;;;;;;;;;;;6.67;74.99;100648.03;5084255;28;20054;-71
2021/10/17 07:28:21;;;;;;;;;;;;;;;6.79;74.75;100655.41;5086607;28;19979;-71
2021/10/17 07:31:00;;;;;;;;;;;;;;;6.93;74.74;100657.31;5083445;28;19919;-71
2021/10/17 07:33:37;;;;;;;;;;;;;;;7.06;74.97;100647.72;5121677;28;20489;-71
2021/10/17 07:36:09;;;;;;;;;;;;;;;7.16;74.19;100648.94;5083643;28;20370;-72
2021/10/17 07:38:41;;;;;;;;;;;;;;;7.21;74.48;100653.16;5087330;28;20058;-71
2021/10/17 07:41:09;;;;;;;;;;;;;;;7.22;74.04;100654.88;5105041;28;20405;-72
2021/10/17 07:43:37;;;;;;;;;;;;;;;7.31;74.53;100657.88;5105817;28;20080;-71
2021/10/17 07:46:05;;;;;;;;;;;;;;;7.36;74.61;100660.31;5084676;28;20457;-72
2021/10/17 07:48:36;;;;;;;;;;;;;;;7.48;74.57;100656.94;5088249;28;20155;-72
2021/10/17 07:51:05;;;;;;;;;;;;;;;7.62;74.53;100657.00;5093539;28;19923;-72
2021/10/17 07:53:34;;;;;;;;;;;;;;;7.75;73.95;100660.72;5097435;28;20032;-72
2021/10/17 07:56:02;;;;;;;;;;;;;;;7.86;73.33;100659.25;5125698;27;19919;-72
2021/10/17 07:58:35;;;;;;;;;;;;;;;7.96;73.20;100660.41;5111301;28;20512;-72
2021/10/17 08:01:03;;;;;;;;;;;;;;;8.03;73.03;100664.47;5094038;28;19927;-72
2021/10/17 08:03:52;;;;;;;;;;;;;;;8.11;71.34;100670.22;5090582;28;19980;-72
2021/10/17 08:06:27;;;;;;;;;;;;;;;8.16;71.64;100664.59;5090063;28;20014;-72
2021/10/17 08:08:57;;;;;;;;;;;;;;;8.24;71.65;100670.34;5112116;28;19920;-72
2021/10/17 08:11:25;;;;;;;;;;;;;;;8.30;71.66;100665.53;5092337;28;19962;-67
2021/10/17 08:13:53;;;;;;;;;;;;;;;8.34;71.25;100664.41;5125846;27;19920;-67
2021/10/17 08:16:29;;;;;;;;;;;;;;;8.33;70.01;100670.72;5086142;28;19920;-67
2021/10/17 08:18:59;;;;;;;;;;;;;;;8.39;70.01;100662.31;5087431;28;19926;-69
2021/10/17 08:21:27;;;;;;;;;;;;;;;8.40;68.74;100661.38;5087384;28;19931;-69
2021/10/17 08:24:09;;;;;;;0.57;0.57;;;;;;;8.42;67.81;100663.94;5080802;28;19989;-68
2021/10/17 08:29:03;;;;;;;1.67;0.75;;;;;;;-145.64;100.00;65708.53;5057582;27;20386;-72
2021/10/17 08:31:32;;;;;;;1.63;0.60;;;;;;;-145.64;100.00;65708.53;5060647;28;20668;-71
2021/10/17 08:34:06;;;;;;;0.47;0.40;;;;;;;-145.64;100.00;65708.53;5060964;28;20270;-71
2021/10/17 08:36:34;;;;;;;0.57;0.47;;;;;;;-145.64;100.00;65708.53;5055966;28;20212;-72
2021/10/17 08:39:45;;;;;;;2.00;0.73;;;;;;;-145.64;100.00;65708.53;5060663;28;20668;-72
2021/10/17 08:42:14;;;;;;;2.37;0.63;;;;;;;-145.64;100.00;65708.53;5060232;28;20702;-72
2021/10/17 08:45:09;;;;;;;0.93;0.50;;;;;;;-145.64;100.00;65708.53;5057293;28;20199;-67
2021/10/17 08:47:38;;;;;;;0.83;0.57;;;;;;;-145.64;100.00;65708.53;5060954;28;20244;-66
2021/10/17 08:50:07;;;;;;;2.63;0.60;;;;;;;-145.64;100.00;65708.53;5054724;28;20304;-66
2021/10/17 08:52:40;;;;;;;2.87;0.70;;;;;;;-145.64;100.00;65708.53;5092978;28;20204;-66
2021/10/17 08:55:11;;;;;;;0.73;0.50;;;;;;;-145.64;100.00;65708.53;5055992;28;20208;-65
2021/10/17 08:57:42;;;;;;;1.00;0.50;;;;;;;-145.64;100.00;65708.53;5061175;28;20312;-65
2021/10/17 09:00:29;;;;;;;0.80;0.50;;;;;;;-145.64;100.00;65708.53;5056827;28;20268;-66
2021/10/17 09:03:09;;;;;;;1.87;0.40;;;;;;;-145.64;100.00;65708.53;5050832;28;20205;-66
2021/10/17 09:05:43;;;;;;;1.10;0.60;;;;;;;-145.64;100.00;65708.53;5058285;28;20203;-65
2021/10/17 09:08:16;;;;;;;0.77;0.40;;;;;;;-145.64;100.00;65708.53;5061758;28;20802;-66
2021/10/17 09:10:54;;;;;;;2.90;0.70;;;;;;;-145.64;100.00;65708.53;5055576;28;20227;-66
2021/10/17 09:13:22;;;;;;;0.40;0.40;;;;;;;-145.64;100.00;65708.53;5055401;28;20570;-67
2021/10/17 09:15:55;;;;;;;0.67;0.37;;;;;;;-145.64;100.00;65708.53;5058876;28;20197;-65
2021/10/17 09:18:24;;;;;;;2.53;0.67;;;;;;;-145.64;100.00;65708.53;5060131;28;20242;-65
2021/10/17 09:21:03;;;;;;;1.30;0.53;;;;;;;-145.64;100.00;65708.53;5060331;28;20197;-64
2021/10/17 09:23:38;;;;;;;2.27;0.70;;;;;;;-145.64;100.00;65708.53;5051497;28;20585;-64
2021/10/17 09:26:20;;;;;;;2.03;0.83;;;;;;;-145.64;100.00;65708.53;5060046;28;20197;-68
2021/10/17 09:28:53;;;;;;;1.83;0.50;;;;;;;-145.64;100.00;65708.53;5060736;28;20230;-64
2021/10/17 09:31:23;;;;;;;0.97;0.60;;;;;;;-145.64;100.00;65708.53;5063585;28;20227;-64
2021/10/17 09:33:53;;;;;;;2.97;0.70;;;;;;;-145.64;100.00;65708.53;5061964;28;20229;-64
2021/10/17 09:36:26;;;;;;;3.27;0.50;;;;;;;-145.64;100.00;65708.53;5061733;28;20283;-65
2021/10/17 09:39:13;;;;;;;1.90;0.40;;;;;;;-145.64;100.00;65708.53;5055907;28;20295;-66
2021/10/17 09:42:18;;;;;;;2.40;0.50;;;;;;;-145.64;100.00;65708.53;5048360;28;20676;-65
2021/10/17 09:44:53;;;;;;;0.40;0.40;;;;;;;-145.64;100.00;65708.53;5042464;28;20520;-65
2021/10/17 09:47:41;;;;;;;0.90;0.60;;;;;;;-145.64;100.00;65708.53;5041736;28;20220;-66
2021/10/17 09:50:13;;;;;;;1.13;0.40;;;;;;;-145.64;100.00;65708.53;5043352;28;20267;-66
2021/10/17 09:52:58;;;;;;;8.37;0.67;;;;;;;-145.64;100.00;65708.53;5048595;28;20198;-66
2021/10/17 09:55:27;;;;;;;4.67;0.60;;;;;;;-145.64;100.00;65708.53;5047595;28;20198;-67
2021/10/17 09:57:56;;;;;;;2.13;0.50;;;;;;;-145.64;100.00;65708.53;5047474;28;20592;-67
2021/10/17 10:00:24;;;;;;;0.57;0.57;;;;;;;-145.64;100.00;65708.53;5047067;28;20451;-66
2021/10/17 10:02:54;;;;;;;0.50;0.50;;;;;;;-145.64;100.00;65708.53;5049152;28;20284;-66
2021/10/17 10:05:28;;;;;;;2.47;0.40;;;;;;;-145.64;100.00;65708.53;5048103;28;20205;-67
2021/10/17 10:08:00;;;;;;;1.57;0.60;;;;;;;-145.64;100.00;65708.53;5046994;28;20633;-67
2021/10/17 10:10:30;;;;;;;2.50;0.57;;;;;;;-145.64;100.00;65708.53;5046663;28;20198;-66
2021/10/17 10:12:59;;;;;;;1.70;0.40;;;;;;;-145.64;100.00;65708.53;5046418;28;20561;-66
2021/10/17 10:15:28;;;;;;;1.77;0.70;;;;;;;-145.64;100.00;65708.53;5047511;28;20319;-66
2021/10/17 10:18:02;;;;;;;0.50;0.50;;;;;;;-145.64;100.00;65708.53;5048113;28;20236;-67
2021/10/17 10:20:31;;;;;;;6.03;0.73;;;;;;;-145.64;100.00;65708.53;5045615;28;20204;-67
2021/10/17 10:23:01;;;;;;;38.77;2.33;;;;;;;-145.64;100.00;65708.53;5047164;28;20669;-66
2021/10/17 10:25:30;;;;;;;18.33;1.03;;;;;;;-145.64;100.00;65708.53;5045840;28;20634;-66
2021/10/17 10:27:59;;;;;;;5.77;0.60;;;;;;;-145.64;100.00;65708.53;5046540;28;20766;-66
2021/10/17 10:30:32;;;;;;;204.60;177.03;;;;;;;-145.64;100.00;65708.53;5046467;28;20703;-66
2021/10/17 10:33:22;;;;;;;1317.10;786.20;;;;;;;-145.64;100.00;65708.53;5042439;28;20420;-66
2021/10/17 10:36:17;;;;;;;114.60;42.60;;;;;;;-145.64;100.00;65708.53;5045442;28;20214;-67
2021/10/17 10:39:18;;;;;;;23.07;7.97;;;;;;;-145.64;100.00;65708.53;5004663;28;20218;-66
2021/10/17 10:41:58;;;;;;;5.10;1.80;;;;;;;-145.64;100.00;65708.53;5043397;28;20669;-66
2021/10/17 10:44:28;;;;;;;1.47;0.70;;;;;;;-145.64;100.00;65708.53;5047340;28;20216;-66
2021/10/17 10:46:58;;;;;;;1.43;1.20;;;;;;;-145.64;100.00;65708.53;5045131;28;20210;-66
2021/10/17 10:49:42;;;;;;;1.70;0.67;;;;;;;-145.64;100.00;65708.53;5044742;28;20232;-66
2021/10/17 10:52:26;;;;;;;0.60;0.60;;;;;;;-145.64;100.00;65708.53;5041085;28;20685;-66
2021/10/17 10:54:56;;;;;;;0.60;0.40;;;;;;;-145.64;100.00;65708.53;5041550;28;20198;-65
2021/10/17 10:57:26;;;;;;;0.77;0.47;;;;;;;-145.64;100.00;65708.53;5041435;28;20203;-66
2021/10/17 11:00:04;;;;;;;0.90;0.43;;;;;;;-145.64;100.00;65708.53;5036071;28;20300;-67
2021/10/17 11:02:34;;;;;;;0.93;0.67;;;;;;;-145.64;100.00;65708.53;5048069;28;20212;-67
2021/10/17 11:05:15;;;;;;;1.90;0.63;;;;;;;-145.64;100.00;65708.53;5046942;28;20212;-67
2021/10/17 11:07:47;;;;;;;0.70;0.23;;;;;;;-145.64;100.00;65708.53;5044575;28;20205;-67
2021/10/17 11:10:47;;;;;;;0.67;0.43;;;;;;;-145.64;100.00;65708.53;5043349;28;20279;-66
2021/10/17 11:13:35;;;;;;;11.03;2.13;;;;;;;-145.64;100.00;65708.53;5042430;28;20714;-66
2021/10/17 11:16:04;;;;;;;15.67;8.67;;;;;;;-145.64;100.00;65708.53;5035298;28;20199;-66
2021/10/17 11:18:40;;;;;;;5.97;2.40;;;;;;;-145.64;100.00;65708.53;5045267;28;20723;-66
2021/10/17 11:21:10;;;;;;;12.97;3.33;;;;;;;-145.64;100.00;65708.53;5052238;28;20271;-66
2021/10/17 11:23:41;;;;;;;1.27;0.90;;;;;;;-145.64;100.00;65708.53;5049851;28;20211;-66
2021/10/17 11:26:11;;;;;;;2.23;0.70;;;;;;;-145.64;100.00;65708.53;5041320;28;20247;-66
2021/10/17 11:28:49;;;;;;;2.13;0.50;;;;;;;-145.64;100.00;65708.53;5033830;28;20697;-67
2021/10/17 11:31:20;;;;;;;0.60;0.50;;;;;;;-145.64;100.00;65708.53;5046883;28;20210;-66
2021/10/17 11:33:48;;;;;;;0.93;0.33;;;;;;;-145.64;100.00;65708.53;5036475;28;20199;-66
2021/10/17 11:36:19;;;;;;;2.10;0.90;;;;;;;-145.64;100.00;65708.53;5037882;28;20198;-66
2021/10/17 11:38:52;;;;;;;1.20;0.40;;;;;;;-145.64;100.00;65708.53;5041992;28;20756;-66
2021/10/17 11:41:20;;;;;;;1.30;0.50;;;;;;;-145.64;100.00;65708.53;5038428;28;20730;-67
2021/10/17 11:43:50;;;;;;;0.50;0.47;;;;;;;-145.64;100.00;65708.53;5042403;28;20194;-66
2021/10/17 11:46:22;;;;;;;1.03;0.50;;;;;;;-145.64;100.00;65708.53;5042422;28;20200;-66
2021/10/17 11:48:58;;;;;;;0.60;0.40;;;;;;;-145.64;100.00;65708.53;5042416;28;20481;-66
2021/10/17 11:51:28;;;;;;;1.90;0.40;;;;;;;-145.64;100.00;65708.53;5041914;28;20658;-66
2021/10/17 11:53:57;;;;;;;2.43;0.53;;;;;;;-145.64;100.00;65708.53;5041893;28;20213;-66
2021/10/17 11:56:25;;;;;;;2.87;0.60;;;;;;;-145.64;100.00;65708.53;5040037;28;20200;-67